createdAt,value
2018-06-09T00:00:22.108Z,52.07
2018-06-09T00:02:48.538Z,52.12
2018-06-09T00:05:15.456Z,52.14
2018-06-09T00:07:41.870Z,52.18
2018-06-09T00:10:08.243Z,52.28
2018-06-09T00:12:41.726Z,52.22
2018-06-09T00:15:08.149Z,52.17
2018-06-09T00:17:34.597Z,52.33
2018-06-09T00:20:01.044Z,52.26
2018-06-09T00:22:27.418Z,52.38
2018-06-09T00:24:53.862Z,52.47
2018-06-09T00:27:20.332Z,52.46
2018-06-09T00:29:46.742Z,52.41
2018-06-09T00:32:13.163Z,52.42
2018-06-09T00:34:39.529Z,52.49
2018-06-09T00:37:05.975Z,52.44
2018-06-09T00:39:32.421Z,52.52
2018-06-09T00:41:58.806Z,52.56
2018-06-09T00:44:25.225Z,52.53
2018-06-09T00:46:51.623Z,52.62
2018-06-09T00:49:17.989Z,52.59
2018-06-09T00:51:44.386Z,52.49
2018-06-09T00:54:10.806Z,52.53
2018-06-09T00:56:37.187Z,52.70
2018-06-09T00:59:03.592Z,52.74
2018-06-09T01:01:29.993Z,52.87
2018-06-09T01:03:56.416Z,52.69
2018-06-09T01:06:22.844Z,53.05
2018-06-09T01:08:49.338Z,52.69
2018-06-09T01:11:15.717Z,52.75
2018-06-09T01:13:42.102Z,52.70
2018-06-09T01:16:08.505Z,52.92
2018-06-09T01:18:34.894Z,52.94
2018-06-09T01:21:01.300Z,52.82
2018-06-09T01:23:27.653Z,52.91
2018-06-09T01:25:54.147Z,52.85
2018-06-09T01:28:20.563Z,52.87
2018-06-09T01:30:47.006Z,52.87
2018-06-09T01:33:13.361Z,52.89
2018-06-09T01:35:39.847Z,52.93
2018-06-09T01:38:06.226Z,52.98
2018-06-09T01:40:32.639Z,53.04
2018-06-09T01:42:59.072Z,52.95
2018-06-09T01:45:25.475Z,53.04
2018-06-09T01:47:51.852Z,52.99
2018-06-09T01:50:18.288Z,53.04
2018-06-09T01:52:44.714Z,52.98
2018-06-09T01:55:11.088Z,53.04
2018-06-09T01:57:37.489Z,52.95
2018-06-09T02:00:03.903Z,53.01
2018-06-09T02:02:30.386Z,53.17
2018-06-09T02:04:56.782Z,53.08
2018-06-09T02:07:23.196Z,53.14
2018-06-09T02:09:49.642Z,53.19
2018-06-09T02:12:16.030Z,53.08
2018-06-09T02:14:42.417Z,53.08
2018-06-09T02:17:08.833Z,53.18
2018-06-09T02:19:35.221Z,53.14
2018-06-09T02:22:01.665Z,53.20
2018-06-09T02:24:28.058Z,53.11
2018-06-09T02:26:54.450Z,53.11
2018-06-09T02:29:20.884Z,53.16
2018-06-09T02:31:47.253Z,53.20
2018-06-09T02:34:13.666Z,53.16
2018-06-09T02:36:40.105Z,53.27
2018-06-09T02:39:06.480Z,53.17
2018-06-09T02:41:32.846Z,53.21
2018-06-09T02:43:59.253Z,53.21
2018-06-09T02:46:25.733Z,53.34
2018-06-09T02:48:52.119Z,53.28
2018-06-09T02:51:18.548Z,53.23
2018-06-09T02:53:44.981Z,53.30
2018-06-09T02:56:11.583Z,53.32
2018-06-09T02:58:38.016Z,53.25
2018-06-09T03:01:04.412Z,53.38
2018-06-09T03:03:30.862Z,53.39
2018-06-09T03:05:57.253Z,53.32
2018-06-09T03:08:23.612Z,53.30
2018-06-09T03:10:49.973Z,53.32
2018-06-09T03:13:16.354Z,53.37
2018-06-09T03:15:42.805Z,53.37
2018-06-09T03:18:09.202Z,53.36
2018-06-09T03:20:35.689Z,53.45
2018-06-09T03:23:02.054Z,53.36
2018-06-09T03:25:28.480Z,53.35
2018-06-09T03:27:55.338Z,53.40
2018-06-09T03:30:21.806Z,53.39
2018-06-09T03:32:48.642Z,53.40
2018-06-09T03:35:15.080Z,53.47
2018-06-09T03:37:41.449Z,53.40
2018-06-09T03:40:07.826Z,53.39
2018-06-09T03:42:34.342Z,53.39
2018-06-09T03:45:00.826Z,53.46
2018-06-09T03:47:27.248Z,53.46
2018-06-09T03:49:53.634Z,53.54
2018-06-09T03:52:19.989Z,53.50
2018-06-09T03:54:46.349Z,53.49
2018-06-09T03:57:12.739Z,53.49
2018-06-09T03:59:39.190Z,53.49
2018-06-09T04:02:05.558Z,53.52
2018-06-09T04:04:31.928Z,53.49
2018-06-09T04:06:58.302Z,53.49
2018-06-09T04:09:24.764Z,53.65
2018-06-09T04:11:51.234Z,53.67
2018-06-09T04:14:17.610Z,53.58
2018-06-09T04:16:43.989Z,53.72
2018-06-09T04:19:10.369Z,53.67
2018-06-09T04:21:36.809Z,53.57
2018-06-09T04:24:03.216Z,53.67
2018-06-09T04:26:29.646Z,53.78
2018-06-09T04:28:56.084Z,53.62
2018-06-09T04:31:22.455Z,53.74
2018-06-09T04:33:48.812Z,53.92
2018-06-09T04:36:15.206Z,53.49
2018-06-09T04:38:41.612Z,53.75
2018-06-09T04:41:07.978Z,53.74
2018-06-09T04:43:34.426Z,53.84
2018-06-09T04:46:00.820Z,53.70
2018-06-09T04:48:27.193Z,53.57
2018-06-09T04:50:53.631Z,53.66
2018-06-09T04:53:20.012Z,53.66
2018-06-09T04:55:46.425Z,53.46
2018-06-09T04:58:12.803Z,53.52
2018-06-09T05:00:39.213Z,53.36
2018-06-09T05:03:05.610Z,53.33
2018-06-09T05:05:32.013Z,53.34
2018-06-09T05:07:58.421Z,53.28
2018-06-09T05:10:24.794Z,53.32
2018-06-09T05:12:51.371Z,53.30
2018-06-09T05:15:17.818Z,53.28
2018-06-09T05:17:44.278Z,53.26
2018-06-09T05:20:10.687Z,53.26
2018-06-09T05:22:37.090Z,53.29
2018-06-09T05:25:03.464Z,53.69
2018-06-09T05:27:29.929Z,53.59
2018-06-09T05:29:56.347Z,53.44
2018-06-09T05:32:22.715Z,53.36
2018-06-09T05:34:49.274Z,53.36
2018-06-09T05:37:15.631Z,53.14
2018-06-09T05:39:42.000Z,52.82
2018-06-09T05:42:08.413Z,52.67
2018-06-09T05:44:34.816Z,52.58
2018-06-09T05:47:01.233Z,52.42
2018-06-09T05:49:27.598Z,52.34
2018-06-09T05:51:54.003Z,52.20
2018-06-09T05:54:20.450Z,52.15
2018-06-09T05:56:46.858Z,52.02
2018-06-09T05:59:13.291Z,51.88
2018-06-09T06:01:39.901Z,51.90
2018-06-09T06:04:06.270Z,51.82
2018-06-09T06:06:32.642Z,51.83
2018-06-09T06:08:59.074Z,51.66
2018-06-09T06:11:25.485Z,51.67
2018-06-09T06:13:51.947Z,51.71
2018-06-09T06:16:18.385Z,51.50
2018-06-09T06:18:44.757Z,51.42
2018-06-09T06:21:11.115Z,51.35
2018-06-09T06:23:37.470Z,51.09
2018-06-09T06:26:03.846Z,51.15
2018-06-09T06:28:30.342Z,51.06
2018-06-09T06:30:56.708Z,50.94
2018-06-09T06:33:23.032Z,50.85
2018-06-09T06:35:49.437Z,50.59
2018-06-09T06:38:15.814Z,50.34
2018-06-09T06:40:42.188Z,50.23
2018-06-09T06:43:08.505Z,50.18
2018-06-09T06:45:34.824Z,49.95
2018-06-09T06:48:01.151Z,50.22
2018-06-09T06:50:27.491Z,50.28
2018-06-09T06:52:53.856Z,50.21
2018-06-09T06:55:20.213Z,50.24
2018-06-09T06:57:46.547Z,50.15
2018-06-09T07:00:12.921Z,50.02
2018-06-09T07:02:39.263Z,49.95
2018-06-09T07:05:05.591Z,49.93
2018-06-09T07:07:31.927Z,49.79
2018-06-09T07:09:58.339Z,49.72
2018-06-09T07:12:24.656Z,49.56
2018-06-09T07:14:50.972Z,49.41
2018-06-09T07:17:17.308Z,49.21
2018-06-09T07:19:43.663Z,49.23
2018-06-09T07:22:10.167Z,49.12
2018-06-09T07:24:36.482Z,49.16
2018-06-09T07:27:02.864Z,49.15
2018-06-09T07:29:29.189Z,49.15
2018-06-09T07:31:55.517Z,49.01
2018-06-09T07:34:21.975Z,48.89
2018-06-09T07:36:48.472Z,48.83
2018-06-09T07:39:14.839Z,48.74
2018-06-09T07:41:41.169Z,48.86
2018-06-09T07:44:07.573Z,48.81
2018-06-09T07:46:33.892Z,48.63
2018-06-09T07:49:00.516Z,48.63
2018-06-09T07:51:26.835Z,48.71
2018-06-09T07:53:53.172Z,48.73
2018-06-09T07:56:19.655Z,48.64
2018-06-09T07:58:46.010Z,48.60
2018-06-09T08:01:12.357Z,48.50
2018-06-09T08:03:38.761Z,48.23
2018-06-09T08:06:05.116Z,48.21
2018-06-09T08:08:31.544Z,48.44
2018-06-09T08:10:57.899Z,48.50
2018-06-09T08:13:24.236Z,48.44
2018-06-09T08:15:50.634Z,48.41
2018-06-09T08:18:17.293Z,48.40
2018-06-09T08:20:43.704Z,48.44
2018-06-09T08:23:10.122Z,48.41
2018-06-09T08:25:36.460Z,48.35
2018-06-09T08:28:02.850Z,48.21
2018-06-09T08:30:29.171Z,48.33
2018-06-09T08:32:55.511Z,48.29
2018-06-09T08:35:22.912Z,48.32
2018-06-09T08:37:49.307Z,48.28
2018-06-09T08:40:15.657Z,48.46
2018-06-09T08:42:42.037Z,48.34
2018-06-09T08:45:08.399Z,48.26
2018-06-09T08:47:34.746Z,48.21
2018-06-09T08:50:01.098Z,48.19
2018-06-09T08:52:27.426Z,48.16
2018-06-09T08:54:53.786Z,48.28
2018-06-09T08:57:20.123Z,48.28
2018-06-09T08:59:46.471Z,48.24
2018-06-09T09:02:12.871Z,47.99
2018-06-09T09:04:39.273Z,48.00
2018-06-09T09:07:06.426Z,48.05
2018-06-09T09:09:32.753Z,47.98
2018-06-09T09:11:59.137Z,48.05
2018-06-09T09:14:25.518Z,48.07
2018-06-09T09:16:51.972Z,48.03
2018-06-09T09:19:18.461Z,48.21
2018-06-09T09:21:44.840Z,48.27
2018-06-09T09:24:11.608Z,48.07
2018-06-09T09:26:38.062Z,48.08
2018-06-09T09:29:04.504Z,47.93
2018-06-09T09:31:30.929Z,47.82
2018-06-09T09:33:57.831Z,47.84
2018-06-09T09:36:24.379Z,47.82
2018-06-09T09:38:51.466Z,47.96
2018-06-09T09:41:18.692Z,47.95
2018-06-09T09:43:45.124Z,48.02
2018-06-09T09:46:11.604Z,48.08
2018-06-09T09:48:38.076Z,48.06
2018-06-09T09:51:04.407Z,47.96
2018-06-09T09:53:30.845Z,48.17
2018-06-09T09:55:57.171Z,48.00
2018-06-09T09:58:23.506Z,48.03
2018-06-09T10:00:49.825Z,48.02
2018-06-09T10:03:16.194Z,48.01
2018-06-09T10:05:42.535Z,48.00
2018-06-09T10:08:08.911Z,47.99
2018-06-09T10:10:35.292Z,47.93
2018-06-09T10:13:01.633Z,47.92
2018-06-09T10:15:27.997Z,47.82
2018-06-09T10:17:54.315Z,47.82
2018-06-09T10:20:20.638Z,47.74
2018-06-09T10:22:47.025Z,47.74
2018-06-09T10:25:13.403Z,47.65
2018-06-09T10:27:39.727Z,47.60
2018-06-09T10:30:06.075Z,47.60
2018-06-09T10:32:32.506Z,47.50
2018-06-09T10:34:58.915Z,47.44
2018-06-09T10:37:25.244Z,47.44
2018-06-09T10:39:51.611Z,47.39
2018-06-09T10:42:17.945Z,47.60
2018-06-09T10:44:44.272Z,47.40
2018-06-09T10:47:10.607Z,47.41
2018-06-09T10:49:36.956Z,47.36
2018-06-09T10:52:03.378Z,47.28
2018-06-09T10:54:29.739Z,47.26
2018-06-09T10:56:56.112Z,47.25
2018-06-09T10:59:22.575Z,47.23
2018-06-09T11:01:48.999Z,47.09
2018-06-09T11:04:15.361Z,47.22
2018-06-09T11:06:41.739Z,46.99
2018-06-09T11:09:08.084Z,46.92
2018-06-09T11:11:34.403Z,47.04
2018-06-09T11:14:00.739Z,46.95
2018-06-09T11:16:27.106Z,46.87
2018-06-09T11:18:53.544Z,46.86
2018-06-09T11:21:19.950Z,46.88
2018-06-09T11:23:46.268Z,46.69
2018-06-09T11:26:12.645Z,46.66
2018-06-09T11:28:39.007Z,46.65
2018-06-09T11:31:05.387Z,46.56
2018-06-09T11:33:31.723Z,46.47
2018-06-09T11:35:58.074Z,46.47
2018-06-09T11:38:24.479Z,46.41
2018-06-09T11:40:50.820Z,46.38
2018-06-09T11:43:17.168Z,46.41
2018-06-09T11:45:43.560Z,46.42
2018-06-09T11:48:09.919Z,46.52
2018-06-09T11:50:36.245Z,46.42
2018-06-09T11:53:02.571Z,46.28
2018-06-09T11:55:28.956Z,46.31
2018-06-09T11:57:55.370Z,46.16
2018-06-09T12:00:21.819Z,46.12
2018-06-09T12:02:48.203Z,46.12
2018-06-09T12:05:14.542Z,46.02
2018-06-09T12:07:40.903Z,46.19
2018-06-09T12:10:07.298Z,46.17
2018-06-09T12:12:33.659Z,46.12
2018-06-09T12:15:00.022Z,46.14
2018-06-09T12:17:26.792Z,46.08
2018-06-09T12:19:53.147Z,46.18
2018-06-09T12:22:19.526Z,46.29
2018-06-09T12:24:45.848Z,46.49
2018-06-09T12:27:12.253Z,46.63
2018-06-09T12:29:38.658Z,46.67
2018-06-09T12:32:05.059Z,46.95
2018-06-09T12:34:31.493Z,47.08
2018-06-09T12:36:57.823Z,47.50
2018-06-09T12:39:24.193Z,47.66
2018-06-09T12:41:50.554Z,47.86
2018-06-09T12:44:16.892Z,48.08
2018-06-09T12:46:43.224Z,48.48
2018-06-09T12:49:09.607Z,48.68
2018-06-09T12:51:36.012Z,48.76
2018-06-09T12:54:02.404Z,48.97
2018-06-09T12:56:28.752Z,48.95
2018-06-09T12:58:55.092Z,49.02
2018-06-09T13:01:21.480Z,49.17
2018-06-09T13:03:48.637Z,49.45
2018-06-09T13:06:14.988Z,49.49
2018-06-09T13:08:41.331Z,49.63
2018-06-09T13:11:11.143Z,49.53
2018-06-09T13:13:37.495Z,49.79
2018-06-09T13:16:03.824Z,49.84
2018-06-09T13:18:30.148Z,50.01
2018-06-09T13:20:56.504Z,50.10
2018-06-09T13:23:22.876Z,50.11
2018-06-09T13:25:49.229Z,50.18
2018-06-09T13:28:15.577Z,50.20
2018-06-09T13:30:41.921Z,50.27
2018-06-09T13:33:08.269Z,50.41
2018-06-09T13:35:34.624Z,50.52
2018-06-09T13:38:00.974Z,50.29
2018-06-09T13:40:27.298Z,49.73
2018-06-09T13:42:53.621Z,49.75
2018-06-09T13:45:19.951Z,49.80
2018-06-09T13:47:46.301Z,49.64
2018-06-09T13:50:12.636Z,49.39
2018-06-09T13:52:38.999Z,49.16
2018-06-09T13:55:05.365Z,49.05
2018-06-09T13:57:31.723Z,48.94
2018-06-09T13:59:58.094Z,48.92
2018-06-09T14:02:24.426Z,49.08
2018-06-09T14:04:50.776Z,49.06
2018-06-09T14:07:17.121Z,49.16
2018-06-09T14:09:43.448Z,49.12
2018-06-09T14:12:09.801Z,49.07
2018-06-09T14:14:36.139Z,49.08
2018-06-09T14:17:02.492Z,49.01
2018-06-09T14:19:28.820Z,48.96
2018-06-09T14:21:55.156Z,48.89
2018-06-09T14:24:21.476Z,48.89
2018-06-09T14:26:47.844Z,48.82
2018-06-09T14:29:14.195Z,48.83
2018-06-09T14:31:40.568Z,48.83
2018-06-09T14:34:06.949Z,48.82
2018-06-09T14:36:33.308Z,48.86
2018-06-09T14:38:59.647Z,48.93
2018-06-09T14:41:26.034Z,49.02
2018-06-09T14:43:52.386Z,48.99
2018-06-09T14:46:18.717Z,48.90
2018-06-09T14:48:45.046Z,48.92
2018-06-09T14:51:11.389Z,48.94
2018-06-09T14:53:37.722Z,49.07
2018-06-09T14:56:04.053Z,49.12
2018-06-09T14:58:30.388Z,49.25
2018-06-09T15:00:56.753Z,49.44
2018-06-09T15:03:23.083Z,49.85
2018-06-09T15:05:49.411Z,50.09
2018-06-09T15:08:15.744Z,50.42
2018-06-09T15:10:42.096Z,50.29
2018-06-09T15:13:08.422Z,50.46
2018-06-09T15:15:34.747Z,50.53
2018-06-09T15:18:01.120Z,50.46
2018-06-09T15:20:27.510Z,50.44
2018-06-09T15:22:53.844Z,50.45
2018-06-09T15:25:20.175Z,50.55
2018-06-09T15:27:46.541Z,50.59
2018-06-09T15:30:12.930Z,50.58
2018-06-09T15:32:39.291Z,50.53
2018-06-09T15:35:05.633Z,50.51
2018-06-09T15:37:31.997Z,50.53
2018-06-09T15:39:58.363Z,50.59
2018-06-09T15:42:24.742Z,50.58
2018-06-09T15:44:51.135Z,50.62
2018-06-09T15:47:17.484Z,50.63
2018-06-09T15:49:43.856Z,50.62
2018-06-09T15:52:10.220Z,50.72
2018-06-09T15:54:36.632Z,50.68
2018-06-09T15:57:03.028Z,50.72
2018-06-09T15:59:29.407Z,50.73
2018-06-09T16:01:55.773Z,50.73
2018-06-09T16:04:22.174Z,50.74
2018-06-09T16:06:48.575Z,50.74
2018-06-09T16:09:14.905Z,50.76
2018-06-09T16:11:41.264Z,50.82
2018-06-09T16:14:07.584Z,50.84
2018-06-09T16:16:33.939Z,50.85
2018-06-09T16:19:00.307Z,50.88
2018-06-09T16:21:26.726Z,50.92
2018-06-09T16:23:53.048Z,50.89
2018-06-09T16:26:19.404Z,50.92
2018-06-09T16:28:45.775Z,50.89
2018-06-09T16:31:12.092Z,50.93
2018-06-09T16:33:38.469Z,50.88
2018-06-09T16:36:04.795Z,50.98
2018-06-09T16:38:31.227Z,50.93
2018-06-09T16:40:57.541Z,51.02
2018-06-09T16:43:23.908Z,51.07
2018-06-09T16:45:50.284Z,51.10
2018-06-09T16:48:16.725Z,51.11
2018-06-09T16:50:43.055Z,50.99
2018-06-09T16:53:09.399Z,51.08
2018-06-09T16:55:35.768Z,51.16
2018-06-09T16:58:02.116Z,51.17
2018-06-09T17:00:28.558Z,51.37
2018-06-09T17:02:54.897Z,51.26
2018-06-09T17:05:21.273Z,51.33
2018-06-09T17:07:47.639Z,51.29
2018-06-09T17:10:13.983Z,51.21
2018-06-09T17:12:40.380Z,51.47
2018-06-09T17:15:06.697Z,51.21
2018-06-09T17:17:33.047Z,51.35
2018-06-09T17:19:59.412Z,51.49
2018-06-09T17:22:25.804Z,51.72
2018-06-09T17:24:52.184Z,51.66
2018-06-09T17:27:18.527Z,51.64
2018-06-09T17:29:44.883Z,51.67
2018-06-09T17:32:11.264Z,51.69
2018-06-09T17:34:37.581Z,51.66
2018-06-09T17:37:03.965Z,51.74
2018-06-09T17:39:30.300Z,51.73
2018-06-09T17:41:56.620Z,51.77
2018-06-09T17:44:22.986Z,51.90
2018-06-09T17:46:49.303Z,52.01
2018-06-09T17:49:15.652Z,52.03
2018-06-09T17:51:42.020Z,52.22
2018-06-09T17:54:08.339Z,52.18
2018-06-09T17:56:34.725Z,52.19
2018-06-09T17:59:01.039Z,52.25
2018-06-09T18:01:27.355Z,52.36
2018-06-09T18:03:53.721Z,52.27
2018-06-09T18:06:20.060Z,52.31
2018-06-09T18:08:46.385Z,52.25
2018-06-09T18:11:12.740Z,52.30
2018-06-09T18:13:39.100Z,52.46
2018-06-09T18:16:05.433Z,52.44
2018-06-09T18:18:31.823Z,52.46
2018-06-09T18:20:58.143Z,52.49
2018-06-09T18:23:24.466Z,52.53
2018-06-09T18:25:50.849Z,52.60
2018-06-09T18:28:17.244Z,52.72
2018-06-09T18:30:43.627Z,52.69
2018-06-09T18:33:09.967Z,52.76
2018-06-09T18:35:36.285Z,52.84
2018-06-09T18:38:02.652Z,52.81
2018-06-09T18:40:29.014Z,52.82
2018-06-09T18:42:55.341Z,52.89
2018-06-09T18:45:21.734Z,53.51
2018-06-09T18:47:48.099Z,53.12
2018-06-09T18:50:14.478Z,53.16
2018-06-09T18:52:40.827Z,53.16
2018-06-09T18:55:07.200Z,53.18
2018-06-09T18:57:33.515Z,53.33
2018-06-09T18:59:59.832Z,53.46
2018-06-09T19:02:26.204Z,53.92
2018-06-09T19:04:52.541Z,53.44
2018-06-09T19:07:18.914Z,53.49
2018-06-09T19:09:45.247Z,53.54
2018-06-09T19:12:11.612Z,53.67
2018-06-09T19:14:37.931Z,53.59
2018-06-09T19:17:04.282Z,53.51
2018-06-09T19:19:30.650Z,53.57
2018-06-09T19:21:57.006Z,53.72
2018-06-09T19:24:23.396Z,53.71
2018-06-09T19:26:49.776Z,53.80
2018-06-09T19:29:16.133Z,53.91
2018-06-09T19:31:42.570Z,53.92
2018-06-09T19:34:08.934Z,53.85
2018-06-09T19:36:35.256Z,53.79
2018-06-09T19:39:01.619Z,53.91
2018-06-09T19:41:27.940Z,53.97
2018-06-09T19:43:54.331Z,54.09
2018-06-09T19:46:20.669Z,54.05
2018-06-09T19:48:47.027Z,54.14
2018-06-09T19:51:13.389Z,54.15
2018-06-09T19:53:39.708Z,54.29
2018-06-09T19:56:06.076Z,54.42
2018-06-09T19:58:32.401Z,54.33
2018-06-09T20:00:58.796Z,54.39
2018-06-09T20:03:25.138Z,54.33
2018-06-09T20:05:51.512Z,54.42
2018-06-09T20:08:17.880Z,54.45
2018-06-09T20:10:44.265Z,54.42
2018-06-09T20:13:10.577Z,54.46
2018-06-09T20:15:36.904Z,54.39
2018-06-09T20:18:03.236Z,54.59
2018-06-09T20:20:29.623Z,54.61
2018-06-09T20:22:55.954Z,54.60
2018-06-09T20:25:22.397Z,54.66
2018-06-09T20:27:48.756Z,54.67
2018-06-09T20:30:15.115Z,54.78
2018-06-09T20:32:41.487Z,54.75
2018-06-09T20:35:07.825Z,54.91
2018-06-09T20:37:34.279Z,54.93
2018-06-09T20:40:00.567Z,54.95
2018-06-09T20:42:26.902Z,54.93
2018-06-09T20:44:53.259Z,54.85
2018-06-09T20:47:19.605Z,54.94
2018-06-09T20:49:45.937Z,55.07
2018-06-09T20:52:12.319Z,55.04
2018-06-09T20:54:38.647Z,55.04
2018-06-09T20:57:04.965Z,55.10
2018-06-09T20:59:31.331Z,55.15
2018-06-09T21:01:57.653Z,55.20
2018-06-09T21:04:23.959Z,55.25
2018-06-09T21:06:50.296Z,55.39
2018-06-09T21:09:16.636Z,55.47
2018-06-09T21:11:42.999Z,55.33
2018-06-09T21:14:09.383Z,55.36
2018-06-09T21:16:35.735Z,55.58
2018-06-09T21:19:02.113Z,55.55
2018-06-09T21:21:28.499Z,55.48
2018-06-09T21:23:54.822Z,55.52
2018-06-09T21:26:21.165Z,55.60
2018-06-09T21:28:47.504Z,55.59
2018-06-09T21:31:13.837Z,55.69
2018-06-09T21:33:40.260Z,55.61
2018-06-09T21:36:06.584Z,55.62
2018-06-09T21:38:32.948Z,55.57
2018-06-09T21:40:59.367Z,55.51
2018-06-09T21:43:25.691Z,55.62
2018-06-09T21:45:52.081Z,55.71
2018-06-09T21:48:18.530Z,55.71
2018-06-09T21:50:44.852Z,55.79
2018-06-09T21:53:11.264Z,55.93
2018-06-09T21:55:37.618Z,55.87
2018-06-09T21:58:03.982Z,55.92
2018-06-09T22:00:30.374Z,55.84
2018-06-09T22:02:56.699Z,55.87
2018-06-09T22:05:23.033Z,55.82
2018-06-09T22:07:49.452Z,55.95
2018-06-09T22:10:15.799Z,56.14
2018-06-09T22:12:42.170Z,56.07
2018-06-09T22:15:08.520Z,55.97
2018-06-09T22:17:34.855Z,56.06
2018-06-09T22:20:01.177Z,56.07
2018-06-09T22:22:27.504Z,56.03
2018-06-09T22:24:53.829Z,56.10
2018-06-09T22:27:20.256Z,56.09
2018-06-09T22:29:46.579Z,56.10
2018-06-09T22:32:12.962Z,56.16
2018-06-09T22:34:39.382Z,56.06
2018-06-09T22:37:05.733Z,56.10
2018-06-09T22:39:32.065Z,56.14
2018-06-09T22:41:58.396Z,56.13
2018-06-09T22:44:25.725Z,56.10
2018-06-09T22:46:52.124Z,56.07
2018-06-09T22:49:18.455Z,56.03
2018-06-09T22:51:44.819Z,56.07
2018-06-09T22:54:11.166Z,56.23
2018-06-09T22:56:37.490Z,56.19
2018-06-09T22:59:03.845Z,56.11
2018-06-09T23:01:30.224Z,56.14
2018-06-09T23:03:56.583Z,56.16
2018-06-09T23:06:22.903Z,56.07
2018-06-09T23:08:49.258Z,56.32
2018-06-09T23:11:15.603Z,56.14
2018-06-09T23:13:41.964Z,56.16
2018-06-09T23:16:08.296Z,56.10
2018-06-09T23:18:34.711Z,56.11
2018-06-09T23:21:01.040Z,56.11
2018-06-09T23:23:27.411Z,56.15
2018-06-09T23:25:53.732Z,56.19
2018-06-09T23:28:20.055Z,56.21
2018-06-09T23:30:46.386Z,56.11
2018-06-09T23:33:12.742Z,56.14
2018-06-09T23:35:39.097Z,56.13
2018-06-09T23:38:05.426Z,56.17
2018-06-09T23:40:31.743Z,56.19
2018-06-09T23:42:58.051Z,56.11
2018-06-09T23:45:24.407Z,56.02
2018-06-09T23:47:50.726Z,56.16
2018-06-09T23:50:17.086Z,56.15
2018-06-09T23:52:43.412Z,56.13
2018-06-09T23:55:09.762Z,56.10
2018-06-09T23:57:36.071Z,56.09
